Time;durP1;ratioP1;P1;durP2;ratioP2;P2;SDS_P1;SDS_P2;PMS_P1;PMS_P2;Temp;Humidity;BMP_temperature;BMP_pressure;BME280_temperature;BME280_humidity;BME280_pressure;Samples;Min_cycle;Max_cycle;Signal;HPM_P1;HPM_P2
2023/01/24 00:00:04;;;;;;;30.77;18.10;;;1.60;99.90;;;;;;5045735;28;20255;-82
2023/01/24 00:02:32;;;;;;;34.07;19.30;;;1.60;99.90;;;;;;5048208;28;20200;-80
2023/01/24 00:04:59;;;;;;;35.77;19.70;;;1.60;99.90;;;;;;5048011;28;20209;-80
2023/01/24 00:07:25;;;;;;;33.07;18.27;;;1.60;99.90;;;;;;5049772;28;20210;-81
2023/01/24 00:09:52;;;;;;;34.43;18.43;;;1.60;99.90;;;;;;5044779;28;20194;-82
2023/01/24 00:12:19;;;;;;;37.77;19.93;;;1.60;99.90;;;;;;5051248;28;20213;-80
2023/01/24 00:14:46;;;;;;;34.80;19.97;;;1.60;99.90;;;;;;5045016;28;20578;-81
2023/01/24 00:17:13;;;;;;;36.33;20.17;;;1.50;99.90;;;;;;5045232;28;20198;-82
2023/01/24 00:19:41;;;;;;;33.37;18.63;;;1.60;99.90;;;;;;5041966;28;20221;-81
2023/01/24 00:22:08;;;;;;;36.57;19.17;;;1.60;99.90;;;;;;5053573;28;20233;-80
2023/01/24 00:24:35;;;;;;;35.53;18.80;;;1.70;99.90;;;;;;5048032;28;20327;-82
2023/01/24 00:27:02;;;;;;;36.03;20.17;;;1.60;99.90;;;;;;5039381;28;20198;-82
2023/01/24 00:29:29;;;;;;;34.70;20.17;;;1.70;99.90;;;;;;5045026;28;20297;-79
2023/01/24 00:31:56;;;;;;;35.77;19.10;;;1.70;99.90;;;;;;5049358;28;20213;-79
2023/01/24 00:34:23;;;;;;;35.17;20.50;;;1.70;99.90;;;;;;5044744;28;20550;-81
2023/01/24 00:36:51;;;;;;;36.50;19.73;;;1.70;99.90;;;;;;5047181;28;20208;-82
2023/01/24 00:39:18;;;;;;;39.67;20.20;;;1.70;99.90;;;;;;5045063;28;20186;-81
2023/01/24 00:41:45;;;;;;;37.07;20.17;;;1.60;99.90;;;;;;5050983;28;20229;-81
2023/01/24 00:44:12;;;;;;;37.73;20.33;;;1.60;99.90;;;;;;5041220;28;20211;-81
2023/01/24 00:46:39;;;;;;;37.73;20.07;;;1.50;99.90;;;;;;5049516;28;20197;-81
2023/01/24 00:49:06;;;;;;;34.57;19.57;;;1.60;99.90;;;;;;5050406;28;20228;-81
2023/01/24 00:51:32;;;;;;;37.10;20.30;;;1.60;99.90;;;;;;5043765;28;20207;-82
2023/01/24 00:54:01;;;;;;;34.97;19.03;;;1.60;99.90;;;;;;5046705;28;20577;-81
2023/01/24 00:56:28;;;;;;;35.93;19.90;;;1.60;99.90;;;;;;5046475;28;20205;-81
2023/01/24 00:58:55;;;;;;;34.93;20.33;;;1.60;99.90;;;;;;5051076;28;20578;-80
2023/01/24 01:01:22;;;;;;;39.87;20.97;;;1.60;99.90;;;;;;5049539;28;20222;-79
2023/01/24 01:03:49;;;;;;;36.50;19.53;;;1.50;99.90;;;;;;5050697;28;20216;-82
2023/01/24 01:06:17;;;;;;;34.00;19.27;;;1.50;99.90;;;;;;5049892;28;20646;-81
2023/01/24 01:08:44;;;;;;;36.97;20.43;;;1.50;99.90;;;;;;5050191;28;20692;-83
2023/01/24 01:11:12;;;;;;;38.10;19.87;;;1.60;99.90;;;;;;5053177;28;20271;-81
2023/01/24 01:13:39;;;;;;;36.33;19.80;;;1.60;99.90;;;;;;5051032;28;20651;-81
2023/01/24 01:16:08;;;;;;;36.23;19.97;;;1.60;99.90;;;;;;5051957;28;20698;-81
2023/01/24 01:18:36;;;;;;;41.87;20.63;;;1.50;99.90;;;;;;5043769;28;20210;-81
2023/01/24 01:21:03;;;;;;;43.30;21.50;;;1.60;99.90;;;;;;5046631;28;20221;-81
2023/01/24 01:23:30;;;;;;;39.90;20.77;;;1.60;99.90;;;;;;5046348;28;20590;-81
2023/01/24 01:26:00;;;;;;;38.83;20.97;;;1.60;99.90;;;;;;5048660;28;20815;-82
2023/01/24 01:28:29;;;;;;;40.80;20.70;;;1.60;99.90;;;;;;5044933;28;20598;-81
2023/01/24 01:30:56;;;;;;;35.63;19.40;;;1.50;99.90;;;;;;5046629;28;20816;-82
2023/01/24 01:33:24;;;;;;;38.73;20.73;;;1.60;99.90;;;;;;5043631;28;20233;-81
2023/01/24 01:35:51;;;;;;;39.63;21.00;;;1.60;99.90;;;;;;5048749;28;20202;-82
2023/01/24 01:38:19;;;;;;;38.60;20.60;;;1.70;99.90;;;;;;5050875;28;20203;-82
2023/01/24 01:40:46;;;;;;;40.07;20.30;;;1.70;99.90;;;;;;5052206;28;20226;-83
2023/01/24 01:43:15;;;;;;;39.03;20.70;;;1.70;99.90;;;;;;5045426;28;20212;-81
2023/01/24 01:45:45;;;;;;;36.70;20.00;;;1.70;99.90;;;;;;5047547;28;20208;-82
2023/01/24 01:48:27;;;;;;;39.77;20.73;;;1.70;99.90;;;;;;5043809;28;20206;-82
2023/01/24 01:51:00;;;;;;;40.43;21.03;;;1.70;99.90;;;;;;5047671;28;20217;-83
2023/01/24 01:53:31;;;;;;;40.80;21.33;;;1.70;99.90;;;;;;5050915;28;20209;-81
2023/01/24 01:56:02;;;;;;;41.33;21.70;;;1.70;99.90;;;;;;5048189;28;20211;-81
2023/01/24 01:58:29;;;;;;;37.50;20.20;;;1.70;99.90;;;;;;5048179;28;20201;-82
2023/01/24 02:00:57;;;;;;;39.33;21.27;;;1.70;99.90;;;;;;5034739;28;20221;-81
2023/01/24 02:03:39;;;;;;;39.53;20.97;;;1.60;99.90;;;;;;5049111;28;20198;-82
2023/01/24 02:06:11;;;;;;;45.43;21.33;;;1.60;99.90;;;;;;5057600;28;20194;-81
2023/01/24 02:08:39;;;;;;;41.13;21.37;;;1.60;99.90;;;;;;5048774;28;20662;-81
2023/01/24 02:16:01;;;;;;;42.00;21.43;;;1.70;99.90;;;;;;5046106;28;20275;-81
2023/01/24 02:16:39;;;;;;;45.07;21.77;;;1.70;99.90;;;;;;5047396;28;20213;-81
2023/01/24 02:19:11;;;;;;;44.00;21.90;;;1.70;99.90;;;;;;5048070;28;20668;-82
2023/01/24 02:21:39;;;;;;;46.20;20.90;;;1.70;99.90;;;;;;5049825;28;20212;-82
2023/01/24 02:24:14;;;;;;;39.47;20.80;;;1.80;99.90;;;;;;5048702;28;20225;-81
2023/01/24 02:26:43;;;;;;;44.30;22.17;;;1.70;99.90;;;;;;5049188;28;20201;-81
2023/01/24 02:29:13;;;;;;;45.83;23.47;;;1.70;99.90;;;;;;5047016;28;20554;-81
2023/01/24 02:31:57;;;;;;;42.57;22.07;;;1.70;99.90;;;;;;5042735;28;20561;-82
2023/01/24 02:34:25;;;;;;;41.00;21.50;;;1.70;99.90;;;;;;5047829;28;20204;-81
2023/01/24 02:36:56;;;;;;;40.60;21.03;;;1.70;99.90;;;;;;5044224;28;20787;-81
2023/01/24 02:39:27;;;;;;;42.97;21.73;;;1.70;99.90;;;;;;5049193;28;20214;-81
2023/01/24 02:41:58;;;;;;;40.37;20.90;;;1.70;99.90;;;;;;5043169;28;20640;-83
2023/01/24 02:44:33;;;;;;;44.30;21.97;;;1.70;99.90;;;;;;5043658;28;20612;-81
2023/01/24 02:47:00;;;;;;;38.73;21.10;;;1.70;99.90;;;;;;5041917;28;20207;-82
2023/01/24 02:49:27;;;;;;;41.97;21.13;;;1.70;99.90;;;;;;5046953;28;20205;-82
2023/01/24 02:54:40;;;;;;;40.33;20.63;;;1.70;99.90;;;;;;5044685;28;20255;-81
2023/01/24 02:59:52;;;;;;;40.93;20.97;;;1.70;99.90;;;;;;5043473;28;20287;-81
2023/01/24 03:02:19;;;;;;;39.03;19.83;;;1.80;99.90;;;;;;5050391;28;20221;-81
2023/01/24 03:04:46;;;;;;;40.27;19.67;;;1.70;99.90;;;;;;5048306;28;20225;-81
2023/01/24 03:07:13;;;;;;;39.87;20.37;;;1.70;99.90;;;;;;5040258;28;20194;-81
2023/01/24 03:09:47;;;;;;;42.57;20.33;;;1.70;99.90;;;;;;5046944;28;20213;-81
2023/01/24 03:34:31;;;;;;;43.00;21.23;;;1.80;99.90;;;;;;5039907;28;20602;-81
2023/01/24 03:36:58;;;;;;;41.10;21.47;;;1.80;99.90;;;;;;5050352;28;20202;-81
2023/01/24 03:42:09;;;;;;;40.80;20.60;;;1.70;99.90;;;;;;5051004;28;20220;-81
2023/01/24 03:44:37;;;;;;;36.70;19.87;;;1.80;99.90;;;;;;5049432;28;20220;-81
2023/01/24 03:47:04;;;;;;;36.97;19.30;;;1.80;99.90;;;;;;5052854;28;20569;-82
2023/01/24 03:52:28;;;;;;;36.50;19.70;;;1.80;99.90;;;;;;5044240;28;20208;-81
2023/01/24 03:54:55;;;;;;;36.33;19.13;;;1.90;99.90;;;;;;5042459;28;20193;-81
2023/01/24 03:57:23;;;;;;;43.13;19.77;;;1.80;99.90;;;;;;5040769;28;20197;-81
2023/01/24 03:59:51;;;;;;;37.33;18.67;;;1.80;99.90;;;;;;5049182;28;20234;-81
2023/01/24 04:02:18;;;;;;;35.60;18.93;;;1.80;99.90;;;;;;5049307;28;20218;-81
2023/01/24 04:07:30;;;;;;;35.17;19.43;;;1.90;99.90;;;;;;5045817;28;20205;-82
2023/01/24 04:09:58;;;;;;;38.03;21.10;;;1.80;99.90;;;;;;5047368;28;20201;-81
2023/01/24 04:12:25;;;;;;;40.33;21.50;;;1.90;99.90;;;;;;5051029;28;20198;-83
2023/01/24 04:14:54;;;;;;;43.07;23.30;;;1.90;99.90;;;;;;5054050;28;20610;-83
2023/01/24 04:17:20;;;;;;;42.60;22.13;;;1.80;99.90;;;;;;5045414;28;20253;-81
2023/01/24 04:19:48;;;;;;;40.77;21.50;;;1.80;99.90;;;;;;5040209;28;20581;-81
2023/01/24 04:22:16;;;;;;;41.77;21.67;;;1.70;99.90;;;;;;5040054;28;20229;-81
2023/01/24 04:24:43;;;;;;;40.27;22.13;;;1.70;99.90;;;;;;5048356;28;20194;-81
2023/01/24 04:27:10;;;;;;;43.60;22.77;;;1.70;99.90;;;;;;5040924;28;20362;-81
2023/01/24 04:29:37;;;;;;;41.30;21.53;;;1.70;99.90;;;;;;5043449;28;20560;-81
2023/01/24 04:32:06;;;;;;;39.27;21.03;;;1.70;99.90;;;;;;5047050;28;20201;-82
2023/01/24 04:34:33;;;;;;;38.90;21.13;;;1.70;99.90;;;;;;5044969;28;20202;-81
2023/01/24 04:37:00;;;;;;;36.87;20.77;;;1.60;99.90;;;;;;5047209;28;20205;-81
2023/01/24 04:39:27;;;;;;;38.67;20.77;;;1.60;99.90;;;;;;5045974;28;20666;-81
2023/01/24 04:41:53;;;;;;;39.37;20.20;;;1.60;99.90;;;;;;5047509;28;20229;-81
2023/01/24 04:44:20;;;;;;;39.90;21.07;;;1.60;99.90;;;;;;5043641;28;20659;-81
2023/01/24 04:46:47;;;;;;;37.37;20.53;;;1.70;99.90;;;;;;5049058;28;20204;-82
2023/01/24 04:49:15;;;;;;;40.67;20.13;;;1.70;99.90;;;;;;5051421;28;20217;-81
2023/01/24 04:51:42;;;;;;;36.77;20.03;;;1.70;99.90;;;;;;5051003;28;20217;-81
2023/01/24 04:54:09;;;;;;;39.77;21.40;;;1.70;99.90;;;;;;5048800;28;20217;-82
2023/01/24 04:56:36;;;;;;;38.20;21.10;;;1.70;99.90;;;;;;5044581;28;20698;-81
2023/01/24 04:59:03;;;;;;;41.67;22.10;;;1.70;99.90;;;;;;5049347;28;20221;-81
2023/01/24 05:01:30;;;;;;;39.13;20.77;;;1.70;99.90;;;;;;5040348;28;20222;-81
2023/01/24 05:03:59;;;;;;;38.03;20.60;;;1.80;99.90;;;;;;5041293;28;20202;-81
2023/01/24 05:06:28;;;;;;;40.57;21.43;;;1.80;99.90;;;;;;5046520;28;20216;-81
2023/01/24 05:08:56;;;;;;;42.97;22.43;;;1.80;99.90;;;;;;5046209;28;20210;-81
2023/01/24 05:11:24;;;;;;;40.17;21.13;;;1.80;99.90;;;;;;5043081;28;20217;-81
2023/01/24 05:13:52;;;;;;;38.20;19.97;;;1.80;99.90;;;;;;5051617;28;20905;-81
2023/01/24 05:16:19;;;;;;;38.43;21.43;;;1.80;99.90;;;;;;5049473;28;20202;-81
2023/01/24 05:18:46;;;;;;;38.27;20.73;;;1.80;99.90;;;;;;5047944;28;20194;-82
2023/01/24 05:21:15;;;;;;;42.00;20.60;;;1.80;99.90;;;;;;5048346;28;20201;-81
2023/01/24 05:23:44;;;;;;;35.13;19.50;;;1.80;99.90;;;;;;5048648;28;20248;-81
2023/01/24 05:26:11;;;;;;;39.37;20.47;;;1.80;99.90;;;;;;5050162;28;20209;-81
2023/01/24 05:28:38;;;;;;;37.07;19.03;;;1.90;99.90;;;;;;5046699;28;20216;-81
2023/01/24 05:31:08;;;;;;;36.77;19.47;;;1.80;99.90;;;;;;5047517;28;20198;-81
2023/01/24 05:33:35;;;;;;;41.03;20.07;;;1.80;99.90;;;;;;5036922;28;20205;-81
2023/01/24 05:36:04;;;;;;;38.10;19.77;;;1.80;99.90;;;;;;5042522;28;20256;-81
2023/01/24 05:38:31;;;;;;;34.27;18.53;;;1.90;99.90;;;;;;5039620;28;20225;-80
2023/01/24 05:41:01;;;;;;;40.13;18.90;;;1.80;99.90;;;;;;5039357;28;20199;-81
2023/01/24 05:43:28;;;;;;;34.07;18.03;;;1.90;99.90;;;;;;5042515;28;20218;-80
2023/01/24 05:45:59;;;;;;;35.23;18.87;;;1.90;99.90;;;;;;5049222;28;20204;-80
2023/01/24 05:48:26;;;;;;;36.53;18.67;;;1.80;99.90;;;;;;5033118;28;20190;-80
2023/01/24 05:50:58;;;;;;;36.07;18.70;;;1.80;99.90;;;;;;5048795;28;20198;-81
2023/01/24 05:53:26;;;;;;;36.27;18.50;;;1.80;99.90;;;;;;5049413;28;20582;-81
2023/01/24 05:55:56;;;;;;;35.73;17.80;;;1.90;99.90;;;;;;5039512;28;20570;-80
2023/01/24 05:58:25;;;;;;;37.17;18.80;;;1.90;99.90;;;;;;5048972;28;20217;-80
2023/01/24 06:00:52;;;;;;;38.37;19.33;;;1.90;99.90;;;;;;5041923;28;20566;-81
2023/01/24 06:03:19;;;;;;;37.67;19.40;;;1.80;99.90;;;;;;5043917;28;20260;-80
2023/01/24 06:05:47;;;;;;;34.77;18.53;;;1.90;99.90;;;;;;5041595;28;20208;-80
2023/01/24 06:08:14;;;;;;;33.17;17.10;;;1.90;99.90;;;;;;5044475;28;20198;-82
2023/01/24 06:10:40;;;;;;;34.90;18.27;;;1.90;99.90;;;;;;5044652;28;20194;-80
2023/01/24 06:13:07;;;;;;;38.67;18.20;;;2.00;99.90;;;;;;5048803;28;20212;-80
2023/01/24 06:15:36;;;;;;;36.10;17.90;;;1.90;99.90;;;;;;5049740;28;20206;-80
2023/01/24 06:18:03;;;;;;;37.57;18.77;;;1.90;99.90;;;;;;5045847;28;20202;-80
2023/01/24 06:20:30;;;;;;;36.73;19.13;;;1.90;99.90;;;;;;5052358;28;20208;-82
2023/01/24 06:23:02;;;;;;;36.03;18.17;;;1.90;99.90;;;;;;5046475;28;20934;-80
2023/01/24 06:25:30;;;;;;;39.53;18.57;;;1.90;99.90;;;;;;5040737;28;20209;-82
2023/01/24 06:27:57;;;;;;;37.93;18.47;;;1.90;99.90;;;;;;5039557;28;20191;-82
2023/01/24 06:30:24;;;;;;;36.37;17.93;;;1.90;99.90;;;;;;5041710;28;20211;-81
2023/01/24 06:33:23;;;;;;;35.80;18.00;;;2.00;99.90;;;;;;5041498;28;20213;-82
2023/01/24 06:36:15;;;;;;;35.83;18.73;;;2.10;99.90;;;;;;5041877;28;20198;-82
2023/01/24 06:38:43;;;;;;;42.23;19.60;;;2.00;99.90;;;;;;5042260;28;20244;-82
2023/01/24 06:41:15;;;;;;;39.13;19.33;;;2.00;99.90;;;;;;5044318;28;20213;-81
2023/01/24 06:43:42;;;;;;;38.03;19.90;;;2.10;99.90;;;;;;5041291;28;20229;-83
2023/01/24 06:46:10;;;;;;;44.23;21.50;;;2.00;99.90;;;;;;5043207;28;20564;-83
2023/01/24 06:48:38;;;;;;;44.77;21.97;;;2.00;99.90;;;;;;5039631;28;20281;-80
2023/01/24 06:51:06;;;;;;;46.80;22.80;;;2.10;99.90;;;;;;5035683;28;20559;-81
2023/01/24 06:53:33;;;;;;;43.90;22.70;;;2.00;99.90;;;;;;5045366;28;20198;-80
2023/01/24 06:56:00;;;;;;;46.00;23.27;;;2.00;99.90;;;;;;5036709;28;20205;-80
2023/01/24 06:58:27;;;;;;;54.07;24.53;;;1.90;99.90;;;;;;5046160;28;20198;-80
2023/01/24 07:00:54;;;;;;;49.10;24.63;;;2.00;99.90;;;;;;5040104;28;20209;-79
2023/01/24 07:03:21;;;;;;;46.30;23.47;;;2.00;99.90;;;;;;5046878;28;20244;-80
2023/01/24 07:05:49;;;;;;;58.37;23.90;;;2.00;99.90;;;;;;5048052;28;20205;-80
2023/01/24 07:08:17;;;;;;;48.27;24.03;;;2.00;99.90;;;;;;5048673;28;20248;-80
2023/01/24 07:10:44;;;;;;;46.77;23.90;;;2.00;99.90;;;;;;5049297;28;20719;-79
2023/01/24 07:13:11;;;;;;;52.63;24.50;;;2.00;99.90;;;;;;5048293;28;20293;-81
2023/01/24 07:15:38;;;;;;;53.40;24.37;;;1.90;99.90;;;;;;5042446;28;20205;-79
2023/01/24 07:18:06;;;;;;;45.73;23.40;;;1.90;99.90;;;;;;5053290;28;20205;-80
2023/01/24 07:20:33;;;;;;;53.27;24.37;;;2.00;99.90;;;;;;5049354;28;20212;-82
2023/01/24 07:23:02;;;;;;;47.10;23.67;;;2.00;99.90;;;;;;5048201;28;20229;-80
2023/01/24 07:25:30;;;;;;;44.13;23.83;;;2.00;99.90;;;;;;5049285;28;20212;-80
2023/01/24 07:27:57;;;;;;;50.03;24.87;;;2.00;99.90;;;;;;5045112;28;20209;-79
2023/01/24 07:30:24;;;;;;;43.90;22.50;;;2.00;99.90;;;;;;5044618;28;20204;-80
2023/01/24 07:32:50;;;;;;;44.87;22.23;;;2.00;99.90;;;;;;5048574;28;20194;-79
2023/01/24 07:35:17;;;;;;;47.23;24.20;;;2.00;99.90;;;;;;5047047;28;20674;-81
2023/01/24 07:37:44;;;;;;;46.50;23.67;;;2.00;99.90;;;;;;5044072;28;20282;-81
2023/01/24 07:40:14;;;;;;;41.63;22.70;;;2.10;99.90;;;;;;5044525;28;20654;-81
2023/01/24 07:42:41;;;;;;;46.17;22.17;;;2.10;99.90;;;;;;5039898;28;20213;-81
2023/01/24 07:45:08;;;;;;;43.87;22.73;;;2.10;99.90;;;;;;5048241;28;20267;-82
2023/01/24 07:47:35;;;;;;;45.17;23.37;;;2.10;99.90;;;;;;5045406;28;20685;-80
2023/01/24 07:50:02;;;;;;;45.23;23.07;;;2.10;99.90;;;;;;5041895;28;20709;-81
2023/01/24 07:52:29;;;;;;;41.77;21.43;;;2.10;99.90;;;;;;5041345;28;20202;-81
2023/01/24 07:54:56;;;;;;;45.70;22.40;;;2.10;99.90;;;;;;5037972;28;20209;-82
2023/01/24 07:57:24;;;;;;;42.67;21.20;;;2.10;99.90;;;;;;5036473;28;20190;-81
2023/01/24 07:59:51;;;;;;;39.30;21.33;;;2.10;99.90;;;;;;5042249;28;20682;-81
2023/01/24 08:02:18;;;;;;;42.50;21.43;;;2.10;99.90;;;;;;5051344;28;20280;-81
2023/01/24 08:04:45;;;;;;;43.33;21.70;;;2.20;99.90;;;;;;5041677;28;20202;-82
2023/01/24 08:07:17;;;;;;;43.20;22.57;;;2.20;99.90;;;;;;5047729;28;20189;-81
2023/01/24 08:09:44;;;;;;;37.37;20.50;;;2.20;99.90;;;;;;5047042;28;20201;-81
2023/01/24 08:12:11;;;;;;;40.43;20.97;;;2.30;99.90;;;;;;5045514;28;21139;-80
2023/01/24 08:14:40;;;;;;;41.83;20.70;;;2.30;99.90;;;;;;5038373;28;20234;-81
2023/01/24 08:17:07;;;;;;;45.57;21.90;;;2.20;99.90;;;;;;5047724;28;20198;-81
2023/01/24 08:19:35;;;;;;;38.57;20.87;;;2.30;99.90;;;;;;5043947;28;20206;-81
2023/01/24 08:22:02;;;;;;;36.50;20.10;;;2.30;99.90;;;;;;5047065;28;20283;-81
2023/01/24 08:24:29;;;;;;;39.80;21.47;;;2.30;99.90;;;;;;5039839;28;20225;-81
2023/01/24 08:26:55;;;;;;;39.60;21.00;;;2.30;99.90;;;;;;5043176;28;20198;-80
2023/01/24 08:29:22;;;;;;;37.67;20.20;;;2.30;99.90;;;;;;5050118;28;20221;-82
2023/01/24 08:31:51;;;;;;;36.73;20.60;;;2.20;99.90;;;;;;5047704;28;20669;-81
2023/01/24 08:34:18;;;;;;;36.80;20.07;;;2.30;99.90;;;;;;5051905;28;20198;-80
2023/01/24 08:36:45;;;;;;;41.30;19.60;;;2.30;99.90;;;;;;5045217;28;20194;-80
2023/01/24 08:39:12;;;;;;;39.67;19.47;;;2.40;99.90;;;;;;5051379;28;20198;-81
2023/01/24 08:41:39;;;;;;;38.90;20.00;;;2.30;99.90;;;;;;5045706;28;20255;-80
2023/01/24 08:44:07;;;;;;;38.17;19.83;;;2.40;99.90;;;;;;5042465;28;20218;-83
2023/01/24 08:46:33;;;;;;;40.30;20.43;;;2.40;99.90;;;;;;5043967;28;20202;-81
2023/01/24 08:49:03;;;;;;;38.47;18.47;;;2.30;99.90;;;;;;5046019;28;20198;-81
2023/01/24 08:51:30;;;;;;;31.63;16.93;;;2.30;99.90;;;;;;5051421;28;20566;-81
2023/01/24 08:53:57;;;;;;;33.43;16.93;;;2.30;99.90;;;;;;5052145;28;20216;-80
2023/01/24 08:56:24;;;;;;;33.80;17.57;;;2.30;99.90;;;;;;5047206;28;20577;-80
2023/01/24 08:58:51;;;;;;;36.17;17.53;;;2.40;99.90;;;;;;5050620;28;20593;-81
2023/01/24 09:01:18;;;;;;;37.10;17.47;;;2.40;99.90;;;;;;5047882;28;20187;-81
2023/01/24 09:03:45;;;;;;;30.97;17.07;;;2.40;99.90;;;;;;5043231;28;20268;-81
2023/01/24 09:06:14;;;;;;;29.03;16.23;;;2.40;99.90;;;;;;5047114;28;20260;-82
2023/01/24 09:08:41;;;;;;;29.63;16.23;;;2.40;99.90;;;;;;5051757;28;20202;-80
2023/01/24 09:11:09;;;;;;;28.97;16.27;;;2.50;99.90;;;;;;5044223;28;20201;-81
2023/01/24 09:13:36;;;;;;;34.90;16.50;;;2.40;99.90;;;;;;5046337;28;20206;-82
2023/01/24 09:16:03;;;;;;;29.43;16.23;;;2.50;99.90;;;;;;5040202;28;20573;-80
2023/01/24 09:18:30;;;;;;;28.40;14.57;;;2.50;99.90;;;;;;5051362;28;20194;-84
2023/01/24 09:21:01;;;;;;;28.63;15.33;;;2.60;99.90;;;;;;5039857;28;20205;-80
2023/01/24 09:23:30;;;;;;;27.40;14.83;;;2.70;99.90;;;;;;5045876;28;20226;-79
2023/01/24 09:25:57;;;;;;;28.50;14.57;;;2.70;99.90;;;;;;5036806;28;20663;-80
2023/01/24 09:28:24;;;;;;;25.47;14.70;;;2.60;99.90;;;;;;5043116;28;20240;-79
2023/01/24 09:30:51;;;;;;;24.07;14.30;;;2.70;99.90;;;;;;5045556;28;20565;-81
2023/01/24 09:33:19;;;;;;;26.10;13.77;;;2.70;99.90;;;;;;5040359;28;20667;-81
2023/01/24 09:35:52;;;;;;;25.97;14.00;;;2.60;99.90;;;;;;5039792;28;20198;-83
2023/01/24 09:38:21;;;;;;;22.33;13.30;;;2.70;99.90;;;;;;5046070;28;20209;-81
2023/01/24 09:40:55;;;;;;;26.93;14.67;;;2.70;99.90;;;;;;5041678;28;20285;-79
2023/01/24 09:43:49;;;;;;;24.63;13.03;;;2.70;99.90;;;;;;5050740;28;20222;-79
2023/01/24 09:46:29;;;;;;;24.70;13.97;;;2.70;99.90;;;;;;5047806;28;20198;-79
2023/01/24 09:49:03;;;;;;;25.13;14.50;;;2.70;99.90;;;;;;5047040;28;20216;-80
2023/01/24 09:51:35;;;;;;;24.47;14.93;;;2.70;99.90;;;;;;5050882;28;20255;-80
2023/01/24 09:54:05;;;;;;;26.23;15.30;;;2.70;99.90;;;;;;5046670;28;20612;-79
2023/01/24 09:56:36;;;;;;;30.03;16.03;;;2.70;99.90;;;;;;5050354;28;20290;-80
2023/01/24 09:59:14;;;;;;;27.43;15.87;;;2.80;99.90;;;;;;5040005;28;20262;-79
2023/01/24 10:01:41;;;;;;;26.27;15.80;;;2.70;99.90;;;;;;5046044;28;20209;-81
2023/01/24 10:04:20;;;;;;;27.23;14.73;;;2.70;99.90;;;;;;5040097;28;20226;-80
2023/01/24 10:07:32;;;;;;;26.13;15.70;;;2.80;99.90;;;;;;5037937;28;20197;-80
2023/01/24 10:10:11;;;;;;;23.90;14.93;;;2.80;99.90;;;;;;5035001;28;20209;-79
2023/01/24 10:12:48;;;;;;;23.00;14.17;;;2.80;99.90;;;;;;5039639;28;20257;-79
2023/01/24 10:15:28;;;;;;;23.10;14.33;;;2.80;99.90;;;;;;5050379;28;20243;-79
2023/01/24 10:18:11;;;;;;;22.17;13.70;;;2.70;99.90;;;;;;5037782;28;20780;-82
2023/01/24 10:20:56;;;;;;;26.33;15.67;;;2.80;99.90;;;;;;5039560;28;20206;-82
2023/01/24 10:23:27;;;;;;;23.50;13.97;;;2.80;99.90;;;;;;5032093;28;20230;-79
2023/01/24 10:25:57;;;;;;;24.20;13.83;;;2.80;99.90;;;;;;5046773;28;20194;-80
2023/01/24 10:28:28;;;;;;;21.17;14.00;;;2.70;99.90;;;;;;5049328;28;20202;-81
2023/01/24 10:31:05;;;;;;;20.13;13.47;;;2.70;99.90;;;;;;5042391;28;20202;-82
2023/01/24 10:33:37;;;;;;;20.50;13.13;;;2.80;99.90;;;;;;5047599;28;20235;-82
2023/01/24 10:36:11;;;;;;;20.97;13.83;;;2.90;99.90;;;;;;5042944;28;20218;-85
2023/01/24 10:38:38;;;;;;;24.17;15.07;;;3.00;99.90;;;;;;5039547;28;20209;-83
2023/01/24 10:41:18;;;;;;;23.47;14.97;;;2.90;99.90;;;;;;5037942;28;20202;-83
2023/01/24 10:43:52;;;;;;;26.20;15.63;;;2.80;99.90;;;;;;5048240;28;20588;-82
2023/01/24 10:46:45;;;;;;;26.23;14.83;;;2.80;99.90;;;;;;5047692;28;20613;-82
2023/01/24 10:49:19;;;;;;;25.17;15.37;;;2.90;99.90;;;;;;5043871;28;20208;-82
2023/01/24 10:52:12;;;;;;;24.97;15.60;;;3.00;99.90;;;;;;5039168;28;20757;-81
2023/01/24 10:54:47;;;;;;;23.10;14.43;;;2.90;99.90;;;;;;5045710;28;20205;-82
2023/01/24 10:57:20;;;;;;;23.83;15.27;;;2.90;99.90;;;;;;5044909;28;20199;-82
2023/01/24 10:59:49;;;;;;;24.97;16.27;;;3.00;99.90;;;;;;5050048;28;20263;-82
2023/01/24 11:02:22;;;;;;;25.67;15.87;;;2.90;99.90;;;;;;5046797;28;20680;-82
2023/01/24 11:04:59;;;;;;;24.60;14.90;;;2.90;99.90;;;;;;5038553;28;20249;-82
2023/01/24 11:07:30;;;;;;;24.27;16.47;;;3.00;99.90;;;;;;5040938;28;20202;-82
2023/01/24 11:10:01;;;;;;;27.23;16.13;;;2.90;99.90;;;;;;5049334;28;20570;-82
2023/01/24 11:12:28;;;;;;;25.97;15.93;;;3.00;99.90;;;;;;5048741;28;20198;-82
2023/01/24 11:14:57;;;;;;;24.33;16.43;;;3.00;99.90;;;;;;5041588;28;20205;-83
2023/01/24 11:17:33;;;;;;;26.10;16.97;;;3.00;99.90;;;;;;5047308;28;20602;-83
2023/01/24 11:20:03;;;;;;;26.37;15.17;;;3.00;99.90;;;;;;5046601;28;20576;-83
2023/01/24 11:22:34;;;;;;;24.87;15.23;;;3.00;99.90;;;;;;5044966;28;20221;-83
2023/01/24 11:25:05;;;;;;;24.23;15.97;;;3.10;99.90;;;;;;5043516;28;20257;-83
2023/01/24 11:27:32;;;;;;;27.43;16.53;;;3.10;99.90;;;;;;5049377;28;20591;-82
2023/01/24 11:30:15;;;;;;;26.33;16.83;;;3.00;99.90;;;;;;5047805;28;20202;-81
2023/01/24 11:32:55;;;;;;;27.17;16.70;;;3.00;99.90;;;;;;5053875;28;20194;-82
2023/01/24 11:35:25;;;;;;;25.50;15.80;;;3.00;99.90;;;;;;5046126;28;20194;-81
2023/01/24 11:38:24;;;;;;;25.23;15.70;;;3.00;99.90;;;;;;5048523;28;20197;-82
2023/01/24 11:41:03;;;;;;;24.03;15.73;;;3.00;99.90;;;;;;5047512;28;20251;-82
2023/01/24 11:44:12;;;;;;;24.53;15.80;;;3.00;99.90;;;;;;5052215;28;20745;-82
2023/01/24 11:47:01;;;;;;;24.77;15.67;;;3.00;99.90;;;;;;5052288;28;20285;-82
2023/01/24 11:49:57;;;;;;;26.47;16.00;;;3.10;99.90;;;;;;5048359;28;20558;-81
2023/01/24 11:52:51;;;;;;;25.30;14.77;;;3.10;99.90;;;;;;5041372;28;20557;-82
2023/01/24 11:55:29;;;;;;;23.70;14.80;;;3.00;99.90;;;;;;5055048;28;20532;-82
2023/01/24 11:58:06;;;;;;;24.53;15.80;;;3.00;99.90;;;;;;5051318;28;20213;-82
2023/01/24 12:00:38;;;;;;;27.37;16.20;;;3.00;99.90;;;;;;5055621;28;20892;-83
2023/01/24 12:03:27;;;;;;;25.20;14.77;;;3.00;99.90;;;;;;5050274;28;20198;-84
2023/01/24 12:06:18;;;;;;;24.60;15.33;;;3.10;99.90;;;;;;5052295;28;20194;-83
2023/01/24 12:08:56;;;;;;;24.87;14.77;;;3.00;99.90;;;;;;5051665;28;20205;-84
2023/01/24 12:11:29;;;;;;;25.53;15.73;;;3.00;99.90;;;;;;5055473;28;20567;-85
2023/01/24 12:14:10;;;;;;;23.13;15.03;;;2.90;99.90;;;;;;5058175;28;20202;-84
2023/01/24 12:16:48;;;;;;;25.93;14.63;;;2.90;99.90;;;;;;5049316;28;20201;-85
2023/01/24 12:19:34;;;;;;;21.90;13.97;;;3.00;99.90;;;;;;5053238;28;20204;-85
2023/01/24 12:22:01;;;;;;;24.47;14.17;;;3.00;99.90;;;;;;5048391;28;20202;-84
2023/01/24 12:24:31;;;;;;;22.70;14.57;;;3.00;99.90;;;;;;5054083;28;20225;-85
2023/01/24 12:27:02;;;;;;;23.40;14.50;;;3.00;99.90;;;;;;5046966;28;20205;-84
2023/01/24 12:29:34;;;;;;;23.47;13.77;;;3.00;99.90;;;;;;5051340;28;20611;-84
2023/01/24 12:32:06;;;;;;;25.03;14.13;;;2.90;99.90;;;;;;5055815;28;20197;-83
2023/01/24 12:34:43;;;;;;;23.40;14.30;;;2.90;99.90;;;;;;5053259;28;20579;-84
2023/01/24 12:37:18;;;;;;;22.60;15.07;;;2.90;99.90;;;;;;5047733;28;20197;-82
2023/01/24 12:39:55;;;;;;;22.60;13.97;;;3.00;99.90;;;;;;5051321;28;20209;-83
2023/01/24 12:42:30;;;;;;;22.80;14.30;;;3.00;99.90;;;;;;5048119;28;20637;-83
2023/01/24 12:45:01;;;;;;;20.47;12.93;;;3.00;99.90;;;;;;5044858;28;20226;-80
2023/01/24 12:47:37;;;;;;;22.37;13.47;;;3.10;99.90;;;;;;5050738;28;20190;-81
2023/01/24 12:50:15;;;;;;;23.83;14.43;;;3.10;99.90;;;;;;5052182;28;20200;-81
2023/01/24 12:52:48;;;;;;;23.13;14.07;;;3.10;99.90;;;;;;5047783;28;20345;-81
2023/01/24 12:55:20;;;;;;;23.97;14.13;;;3.10;99.90;;;;;;5050768;28;20565;-81
2023/01/24 12:57:51;;;;;;;21.73;12.77;;;3.20;99.90;;;;;;5052494;28;20205;-81
2023/01/24 13:00:20;;;;;;;23.07;13.33;;;3.20;99.90;;;;;;5045610;28;20225;-81
2023/01/24 13:03:17;;;;;;;22.90;15.00;;;3.20;99.90;;;;;;5049326;28;20668;-81
2023/01/24 13:05:53;;;;;;;23.70;14.13;;;3.30;99.90;;;;;;5059976;28;20229;-80
2023/01/24 13:08:29;;;;;;;22.73;14.73;;;3.30;99.90;;;;;;5046070;28;20595;-81
2023/01/24 13:11:08;;;;;;;21.07;13.80;;;3.30;99.90;;;;;;5039103;28;20198;-80
2023/01/24 13:13:41;;;;;;;27.37;14.47;;;3.30;99.90;;;;;;5063206;28;20201;-81
2023/01/24 13:16:45;;;;;;;22.47;14.03;;;3.10;99.80;;;;;;5048497;28;20198;-81
2023/01/24 13:19:26;;;;;;;21.40;14.13;;;3.10;99.90;;;;;;5043743;28;20194;-81
2023/01/24 13:22:02;;;;;;;23.47;14.00;;;3.10;99.90;;;;;;5043614;28;20201;-80
2023/01/24 13:24:48;;;;;;;20.00;13.60;;;3.10;99.90;;;;;;5046640;28;20239;-81
2023/01/24 13:27:36;;;;;;;26.13;14.90;;;3.00;99.80;;;;;;5050898;28;20539;-81
2023/01/24 13:30:25;;;;;;;19.97;13.70;;;3.10;99.90;;;;;;5047654;28;20194;-81
2023/01/24 13:32:53;;;;;;;22.57;13.93;;;3.00;99.80;;;;;;5048220;28;20197;-82